Time;durP1;ratioP1;P1;durP2;ratioP2;P2;SDS_P1;SDS_P2;PMS_P1;PMS_P2;Temp;Humidity;BMP_temperature;BMP_pressure;BME280_temperature;BME280_humidity;BME280_pressure;Samples;Min_cycle;Max_cycle;Signal;HPM_P1;HPM_P2
2023/03/21 00:01:52;;;;;;;2.73;1.73;;;14.20;32.60;;;;;;5032002;28;20204;-75
2023/03/21 00:04:18;;;;;;;2.67;1.50;;;14.00;33.80;;;;;;5033578;28;20173;-74
2023/03/21 00:06:43;;;;;;;2.10;1.40;;;14.00;34.20;;;;;;5032488;28;20423;-74
2023/03/21 00:09:10;;;;;;;2.30;1.37;;;14.20;34.00;;;;;;5032138;28;20511;-75
2023/03/21 00:11:35;;;;;;;2.17;1.43;;;14.00;34.10;;;;;;5030385;28;20207;-74
2023/03/21 00:14:01;;;;;;;2.60;1.40;;;13.90;34.60;;;;;;5033521;28;20408;-72
2023/03/21 00:16:29;;;;;;;2.00;1.20;;;13.90;36.00;;;;;;5033674;28;20251;-71
2023/03/21 00:18:56;;;;;;;2.53;1.43;;;13.70;36.50;;;;;;5033627;28;20349;-72
2023/03/21 00:21:31;;;;;;;2.07;1.20;;;13.80;36.30;;;;;;5038685;28;20506;-72
2023/03/21 00:23:57;;;;;;;2.00;1.30;;;11.20;34.20;;;;;;5031276;28;20432;-75
2023/03/21 00:26:23;;;;;;;2.63;1.63;;;13.60;37.00;;;;;;5033136;28;20415;-74
2023/03/21 00:28:49;;;;;;;2.37;1.70;;;13.60;37.60;;;;;;5033229;28;20415;-74
2023/03/21 00:31:16;;;;;;;2.20;1.30;;;13.90;34.30;;;;;;5031762;28;20817;-72
2023/03/21 00:33:42;;;;;;;2.00;1.20;;;13.90;35.20;;;;;;5030953;28;20877;-74
2023/03/21 00:36:09;;;;;;;1.93;1.20;;;13.80;35.90;;;;;;5033229;28;20439;-75
2023/03/21 00:38:35;;;;;;;2.03;1.30;;;14.00;34.20;;;;;;5033322;28;20938;-75
2023/03/21 00:41:08;;;;;;;2.00;1.20;;;14.00;35.30;;;;;;5033004;28;20992;-75
2023/03/21 00:43:34;;;;;;;2.20;1.40;;;14.00;35.50;;;;;;5028756;28;20489;-75
2023/03/21 00:46:00;;;;;;;1.90;1.20;;;14.00;34.60;;;;;;5033101;28;20409;-75
2023/03/21 00:48:26;;;;;;;2.00;1.27;;;14.10;35.40;;;;;;5032990;28;20414;-75
2023/03/21 00:50:54;;;;;;;2.20;1.40;;;14.00;35.20;;;;;;5032117;28;20459;-76
2023/03/21 00:53:20;;;;;;;1.90;1.13;;;14.40;35.50;;;;;;5027880;28;20435;-75
2023/03/21 00:55:47;;;;;;;2.40;1.50;;;14.00;34.80;;;;;;5032103;28;20439;-75
2023/03/21 00:58:13;;;;;;;2.00;1.20;;;13.90;34.90;;;;;;5032888;28;20423;-75
2023/03/21 01:00:38;;;;;;;1.90;1.13;;;14.40;35.70;;;;;;5032160;28;20466;-75
2023/03/21 01:03:06;;;;;;;2.90;1.73;;;14.20;35.50;;;;;;5031033;28;20171;-74
2023/03/21 01:08:20;;;;;;;2.60;2.10;;;13.80;34.10;;;;;;5032432;28;20526;-72
2023/03/21 01:10:47;;;;;;;2.10;1.47;;;14.10;35.70;;;;;;5029672;28;20448;-72
2023/03/21 01:13:15;;;;;;;2.83;1.50;;;13.80;35.90;;;;;;5030113;28;20427;-70
2023/03/21 01:15:46;;;;;;;2.10;1.40;;;14.10;35.20;;;;;;5030459;28;20794;-72
2023/03/21 01:18:13;;;;;;;2.13;1.30;;;14.00;35.30;;;;;;5032386;28;20918;-72
2023/03/21 01:20:43;;;;;;;2.50;1.70;;;14.00;35.50;;;;;;5031907;28;20456;-72
2023/03/21 01:23:10;;;;;;;2.00;1.27;;;13.90;36.00;;;;;;5032401;28;20440;-74
2023/03/21 01:25:36;;;;;;;2.00;1.20;;;13.90;36.00;;;;;;5028064;28;20431;-72
2023/03/21 01:28:02;;;;;;;1.93;1.20;;;13.80;35.90;;;;;;5031541;28;20921;-75
2023/03/21 01:30:27;;;;;;;2.30;1.60;;;14.00;35.70;;;;;;5031084;28;20662;-73
2023/03/21 01:32:53;;;;;;;2.00;1.30;;;13.90;36.00;;;;;;5031933;28;20511;-73
2023/03/21 01:35:19;;;;;;;2.63;1.63;;;13.90;35.10;;;;;;5029913;28;20185;-71
2023/03/21 01:37:44;;;;;;;2.00;1.30;;;13.90;35.70;;;;;;5029512;28;20578;-73
2023/03/21 01:40:22;;;;;;;2.07;1.30;;;14.00;35.50;;;;;;5032094;28;20448;-73
2023/03/21 01:42:48;;;;;;;1.90;1.20;;;14.00;36.10;;;;;;5030691;28;20180;-73
2023/03/21 01:45:51;;;;;;;1.90;1.10;;;14.10;35.20;;;;;;5031254;28;20415;-73
2023/03/21 01:48:18;;;;;;;1.90;1.10;;;14.00;35.10;;;;;;5021379;28;20215;-73
2023/03/21 01:50:45;;;;;;;1.90;1.20;;;13.90;34.70;;;;;;5029596;28;20799;-72
2023/03/21 01:53:10;;;;;;;2.63;1.67;;;13.80;35.00;;;;;;5031506;28;20447;-73
2023/03/21 01:55:36;;;;;;;1.90;1.10;;;13.90;34.90;;;;;;5033257;28;20458;-73
2023/03/21 01:58:04;;;;;;;2.00;1.30;;;13.80;35.90;;;;;;5031073;28;20188;-73
2023/03/21 02:00:31;;;;;;;1.90;1.20;;;13.80;35.20;;;;;;5031179;28;20555;-73
2023/03/21 02:03:00;;;;;;;1.93;1.27;;;13.90;36.00;;;;;;5031474;28;20891;-73
2023/03/21 02:05:39;;;;;;;2.67;1.80;;;13.80;34.40;;;;;;5031867;28;20413;-73
2023/03/21 02:08:05;;;;;;;2.10;1.33;;;13.70;35.20;;;;;;5030655;28;20435;-70
2023/03/21 02:10:31;;;;;;;2.00;1.30;;;14.20;36.30;;;;;;5029375;28;20462;-70
2023/03/21 02:13:08;;;;;;;2.30;1.40;;;14.20;34.70;;;;;;5030650;28;20173;-70
2023/03/21 02:15:40;;;;;;;2.80;1.70;;;14.30;34.20;;;;;;5031664;28;20389;-72
2023/03/21 02:18:12;;;;;;;1.97;1.23;;;13.90;35.90;;;;;;5030038;28;20420;-70
2023/03/21 02:21:02;;;;;;;2.47;1.40;;;13.90;35.60;;;;;;5029082;28;20549;-71
2023/03/21 02:23:39;;;;;;;2.00;1.23;;;13.80;35.90;;;;;;5029401;28;20435;-70
2023/03/21 02:26:40;;;;;;;1.90;1.20;;;13.70;35.50;;;;;;5031731;28;20399;-70
2023/03/21 02:29:11;;;;;;;2.20;1.50;;;13.40;35.50;;;;;;5013833;28;20444;-74
2023/03/21 02:31:40;;;;;;;2.10;1.40;;;13.30;36.30;;;;;;5030091;28;20498;-70
2023/03/21 02:34:47;;;;;;;1.90;1.20;;;13.20;36.20;;;;;;5031126;28;20408;-70
2023/03/21 02:37:33;;;;;;;2.10;1.20;;;13.10;35.80;;;;;;5031194;28;21272;-70
2023/03/21 02:40:08;;;;;;;2.20;1.40;;;13.30;36.00;;;;;;5031068;28;20463;-70
2023/03/21 02:42:48;;;;;;;2.50;1.60;;;13.30;35.90;;;;;;5029071;28;20457;-70
2023/03/21 02:45:20;;;;;;;2.00;1.30;;;13.30;35.40;;;;;;5026197;28;20423;-70
2023/03/21 02:47:58;;;;;;;2.00;1.23;;;13.00;36.60;;;;;;5030359;28;20784;-70
2023/03/21 02:50:40;;;;;;;2.00;1.20;;;13.10;36.40;;;;;;5029804;28;20931;-70
2023/03/21 02:53:09;;;;;;;1.90;1.20;;;13.10;36.40;;;;;;5024415;28;20435;-70
2023/03/21 02:55:36;;;;;;;1.90;1.20;;;13.00;36.70;;;;;;5026647;28;20466;-73
2023/03/21 02:58:03;;;;;;;2.50;1.73;;;13.40;36.90;;;;;;5031098;28;20941;-70
2023/03/21 03:00:32;;;;;;;2.10;1.40;;;13.30;35.90;;;;;;5030311;28;20458;-70
2023/03/21 03:02:58;;;;;;;2.00;1.20;;;13.70;35.80;;;;;;5027660;28;20438;-70
2023/03/21 03:05:30;;;;;;;1.80;1.10;;;13.40;35.50;;;;;;5029279;28;20427;-70
2023/03/21 03:08:05;;;;;;;2.10;1.33;;;13.00;36.40;;;;;;5031149;28;20428;-69
2023/03/21 03:10:34;;;;;;;2.87;1.83;;;12.70;37.90;;;;;;5030741;28;20398;-69
2023/03/21 03:13:28;;;;;;;2.60;1.80;;;13.10;36.40;;;;;;5026255;28;20440;-72
2023/03/21 03:16:27;;;;;;;1.90;1.10;;;13.60;35.80;;;;;;5024672;28;20397;-70
2023/03/21 03:18:59;;;;;;;1.90;1.17;;;13.80;34.70;;;;;;4948539;28;20431;-69
2023/03/21 03:21:33;;;;;;;2.20;1.37;;;13.60;35.00;;;;;;4958126;28;20449;-70
2023/03/21 03:24:15;;;;;;;2.10;1.30;;;13.60;35.50;;;;;;4958720;28;20428;-69
2023/03/21 03:26:58;;;;;;;1.90;1.20;;;13.70;35.80;;;;;;4962280;28;20418;-69
2023/03/21 03:29:27;;;;;;;1.80;1.10;;;13.80;35.90;;;;;;4954339;29;20450;-70
2023/03/21 03:32:02;;;;;;;1.80;1.20;;;13.70;35.80;;;;;;4954454;29;20833;-70
2023/03/21 03:34:33;;;;;;;2.00;1.20;;;13.60;36.50;;;;;;4958729;28;21052;-71
2023/03/21 03:37:03;;;;;;;1.90;1.10;;;13.70;35.70;;;;;;4965817;28;20430;-70
2023/03/21 03:39:47;;;;;;;1.90;1.20;;;13.80;35.10;;;;;;4970578;28;20461;-70
2023/03/21 03:42:17;;;;;;;1.90;1.20;;;14.20;36.30;;;;;;4969042;28;20438;-70
2023/03/21 03:44:44;;;;;;;2.20;1.40;;;13.70;35.80;;;;;;4969423;28;20435;-70
2023/03/21 03:47:14;;;;;;;2.07;1.30;;;14.00;36.10;;;;;;4958005;28;20463;-70
2023/03/21 03:49:51;;;;;;;2.70;1.60;;;13.50;35.60;;;;;;4969566;28;20924;-71
2023/03/21 03:52:19;;;;;;;1.93;1.30;;;13.60;35.70;;;;;;4953057;29;20465;-70
2023/03/21 03:54:47;;;;;;;2.30;1.20;;;13.40;35.80;;;;;;4965081;28;20474;-70
2023/03/21 03:57:14;;;;;;;2.93;1.93;;;13.50;36.30;;;;;;5032943;28;20470;-70
2023/03/21 03:59:43;;;;;;;2.00;1.30;;;13.40;35.90;;;;;;5033797;28;20450;-73
2023/03/21 04:02:09;;;;;;;2.00;1.20;;;13.30;37.00;;;;;;5034101;28;20431;-71
2023/03/21 04:04:35;;;;;;;2.00;1.20;;;13.40;36.30;;;;;;5033505;28;20824;-70
2023/03/21 04:07:02;;;;;;;1.90;1.20;;;13.50;35.60;;;;;;5031947;28;20435;-70
2023/03/21 04:09:28;;;;;;;3.33;1.70;;;13.70;35.80;;;;;;5032982;28;20463;-70
2023/03/21 04:11:55;;;;;;;1.80;1.00;;;13.50;36.70;;;;;;5032769;28;20455;-70
2023/03/21 04:14:21;;;;;;;1.90;1.20;;;13.40;35.50;;;;;;5033155;28;20417;-70
2023/03/21 04:16:46;;;;;;;1.87;1.13;;;13.30;35.80;;;;;;5031832;28;20799;-70
2023/03/21 04:19:12;;;;;;;2.30;1.40;;;13.30;35.40;;;;;;5033532;28;20200;-70
2023/03/21 04:21:38;;;;;;;1.90;1.20;;;13.70;35.80;;;;;;5029990;28;20196;-73
2023/03/21 04:24:04;;;;;;;1.90;1.10;;;13.30;36.00;;;;;;5033264;28;20172;-71
2023/03/21 04:26:32;;;;;;;1.80;1.10;;;13.30;35.80;;;;;;5033791;28;20796;-70
2023/03/21 04:29:01;;;;;;;1.80;1.10;;;13.30;35.40;;;;;;5031477;28;21022;-70
2023/03/21 04:31:29;;;;;;;2.00;1.20;;;13.20;35.70;;;;;;5033280;28;20443;-73
2023/03/21 04:33:56;;;;;;;1.80;1.10;;;13.00;37.00;;;;;;5044641;28;20461;-73
2023/03/21 04:36:32;;;;;;;1.90;1.20;;;12.90;37.40;;;;;;5052988;28;20410;-70
2023/03/21 04:39:00;;;;;;;1.90;1.10;;;13.10;36.40;;;;;;5037906;28;20477;-73
2023/03/21 04:41:27;;;;;;;1.90;1.20;;;13.40;36.30;;;;;;5032068;28;20508;-71
2023/03/21 04:43:54;;;;;;;2.00;1.20;;;13.20;35.70;;;;;;5032807;28;20837;-70
2023/03/21 04:46:20;;;;;;;2.20;1.40;;;13.20;37.00;;;;;;5033245;28;20898;-71
2023/03/21 04:48:46;;;;;;;1.90;1.10;;;13.30;36.60;;;;;;5029710;28;20435;-70
2023/03/21 04:51:12;;;;;;;1.80;1.20;;;13.20;37.50;;;;;;5032592;28;20819;-72
2023/03/21 04:53:38;;;;;;;1.90;1.20;;;13.50;36.70;;;;;;5032608;28;20184;-73
2023/03/21 04:56:05;;;;;;;1.83;1.10;;;13.60;37.00;;;;;;5030464;28;20435;-73
2023/03/21 04:58:31;;;;;;;2.00;1.20;;;13.10;36.70;;;;;;5032622;28;20986;-70
2023/03/21 05:00:56;;;;;;;1.93;1.20;;;13.10;37.70;;;;;;5030505;28;20546;-72
2023/03/21 05:03:23;;;;;;;1.90;1.20;;;13.20;37.90;;;;;;5032499;28;20587;-72
2023/03/21 05:05:49;;;;;;;1.90;1.23;;;13.50;37.60;;;;;;5033124;28;20192;-70
2023/03/21 05:08:15;;;;;;;2.03;1.40;;;13.20;37.00;;;;;;5032893;28;20407;-70
2023/03/21 05:10:41;;;;;;;1.90;1.10;;;13.40;38.80;;;;;;5030125;28;20242;-70
2023/03/21 05:13:07;;;;;;;2.00;1.30;;;13.20;37.00;;;;;;5026515;28;20434;-70
2023/03/21 05:15:33;;;;;;;1.90;1.20;;;13.20;37.20;;;;;;5032467;28;20419;-71
2023/03/21 05:18:10;;;;;;;1.90;1.20;;;13.30;37.00;;;;;;5031702;28;20180;-71
2023/03/21 05:20:41;;;;;;;1.90;1.10;;;13.20;38.20;;;;;;5029926;28;20213;-70
2023/03/21 05:23:09;;;;;;;2.00;1.20;;;13.10;37.90;;;;;;5032558;28;20411;-71
2023/03/21 05:25:38;;;;;;;1.90;1.10;;;13.10;37.30;;;;;;5032077;28;20412;-71
2023/03/21 05:28:06;;;;;;;2.20;1.40;;;13.00;38.00;;;;;;5031414;28;20514;-70
2023/03/21 05:30:32;;;;;;;1.90;1.20;;;12.90;37.70;;;;;;5032110;28;20418;-70
2023/03/21 05:32:58;;;;;;;2.85;1.55;;;12.80;38.40;;;;;;5026284;28;21014;-70
2023/03/21 05:35:23;;;;;;;1.90;1.10;;;12.70;38.20;;;;;;5030655;28;20181;-70
2023/03/21 05:37:49;;;;;;;1.90;1.20;;;12.40;38.60;;;;;;5031864;28;20797;-71
2023/03/21 05:40:15;;;;;;;1.90;1.20;;;12.40;39.60;;;;;;5030865;28;20212;-70
2023/03/21 05:42:40;;;;;;;2.10;1.50;;;12.00;41.60;;;;;;5029776;28;20199;-70
2023/03/21 05:45:06;;;;;;;1.90;1.20;;;11.80;41.90;;;;;;5030603;28;20267;-70
2023/03/21 05:47:32;;;;;;;1.90;1.20;;;11.90;41.00;;;;;;5031178;28;20173;-70
2023/03/21 05:49:58;;;;;;;2.57;1.47;;;12.00;40.90;;;;;;5031294;28;20438;-71
2023/03/21 05:52:23;;;;;;;2.00;1.30;;;12.00;40.00;;;;;;5029971;28;20474;-71
2023/03/21 05:54:49;;;;;;;2.33;1.80;;;12.20;40.90;;;;;;5031359;28;20191;-74
2023/03/21 05:57:15;;;;;;;2.27;1.37;;;11.80;40.20;;;;;;5032131;28;20188;-70
2023/03/21 05:59:40;;;;;;;1.80;1.10;;;12.20;40.80;;;;;;5028913;28;20204;-71
2023/03/21 06:02:06;;;;;;;2.00;1.30;;;12.20;40.00;;;;;;5028233;28;20219;-71
2023/03/21 06:04:32;;;;;;;1.93;1.27;;;12.00;40.40;;;;;;5029518;28;20180;-71
2023/03/21 06:06:57;;;;;;;2.00;1.30;;;12.10;39.60;;;;;;5027301;28;20176;-73
2023/03/21 06:09:23;;;;;;;2.10;1.37;;;12.50;39.30;;;;;;5031491;28;20176;-71
2023/03/21 06:11:51;;;;;;;1.97;1.20;;;12.50;38.50;;;;;;5029552;28;20680;-71
2023/03/21 06:14:18;;;;;;;2.00;1.23;;;12.70;38.70;;;;;;5031253;28;20176;-71
2023/03/21 06:16:44;;;;;;;2.00;1.33;;;12.90;39.10;;;;;;5028410;28;20437;-70
2023/03/21 06:19:10;;;;;;;2.40;1.50;;;12.90;38.40;;;;;;5031302;28;20408;-71
2023/03/21 06:21:35;;;;;;;2.50;1.60;;;13.00;38.60;;;;;;5031017;28;20798;-71
2023/03/21 06:24:01;;;;;;;2.03;1.27;;;12.90;36.90;;;;;;5030846;28;20415;-70
2023/03/21 06:26:26;;;;;;;1.80;1.10;;;12.50;37.40;;;;;;5031329;28;20181;-71
2023/03/21 06:28:52;;;;;;;1.93;1.20;;;12.40;38.20;;;;;;5025008;28;20648;-71
2023/03/21 06:31:22;;;;;;;2.20;1.40;;;12.40;38.50;;;;;;5028948;28;20219;-74
2023/03/21 06:33:48;;;;;;;2.17;1.30;;;12.90;38.60;;;;;;5030500;28;20424;-71
2023/03/21 06:36:14;;;;;;;2.20;1.40;;;12.60;38.20;;;;;;5031032;28;20447;-71
2023/03/21 06:38:40;;;;;;;2.40;1.70;;;12.90;38.60;;;;;;5023975;28;20505;-73
2023/03/21 06:41:06;;;;;;;2.20;1.20;;;13.00;37.80;;;;;;5026672;28;20981;-71
2023/03/21 06:43:33;;;;;;;1.90;1.20;;;12.80;38.40;;;;;;5031088;28;20423;-70
2023/03/21 06:45:59;;;;;;;1.90;1.20;;;12.80;38.60;;;;;;5031540;28;20418;-72
2023/03/21 06:48:26;;;;;;;2.17;1.40;;;12.80;38.10;;;;;;5031224;28;20407;-72
2023/03/21 06:50:52;;;;;;;1.90;1.20;;;13.00;37.60;;;;;;5029513;28;20516;-70
2023/03/21 06:53:19;;;;;;;2.00;1.20;;;13.10;37.80;;;;;;5029714;28;20435;-70
2023/03/21 06:55:52;;;;;;;2.10;1.37;;;13.10;37.50;;;;;;5027790;28;20501;-76
2023/03/21 06:58:18;;;;;;;2.17;1.40;;;13.10;37.60;;;;;;5028752;28;21027;-70
2023/03/21 07:00:43;;;;;;;1.83;1.10;;;12.70;37.30;;;;;;5033616;28;20549;-71
2023/03/21 07:03:10;;;;;;;2.20;1.60;;;13.30;38.30;;;;;;5033351;28;20172;-75
2023/03/21 07:05:36;;;;;;;2.30;1.30;;;13.10;36.30;;;;;;5034270;28;20185;-70
2023/03/21 07:08:02;;;;;;;3.93;1.53;;;13.30;35.40;;;;;;5034880;28;20412;-71
2023/03/21 07:10:28;;;;;;;2.00;1.30;;;13.20;36.10;;;;;;5034850;28;20188;-71
2023/03/21 07:12:54;;;;;;;1.80;1.10;;;13.40;35.50;;;;;;5025580;28;20427;-75
2023/03/21 07:15:20;;;;;;;2.00;1.30;;;13.70;35.00;;;;;;5033468;28;20199;-77
2023/03/21 07:17:45;;;;;;;4.00;1.93;;;13.80;34.50;;;;;;5033529;28;20181;-76
2023/03/21 07:20:11;;;;;;;2.00;1.37;;;14.00;34.90;;;;;;5034611;28;20451;-77
2023/03/21 07:22:37;;;;;;;2.40;1.50;;;13.90;34.20;;;;;;5033817;28;20215;-76
2023/03/21 07:25:04;;;;;;;2.10;1.47;;;13.50;35.60;;;;;;5029923;28;20513;-71
2023/03/21 07:27:30;;;;;;;2.00;1.30;;;13.10;35.30;;;;;;5031624;28;20475;-75
2023/03/21 07:29:55;;;;;;;1.83;1.20;;;13.00;37.70;;;;;;5032934;28;20469;-70
2023/03/21 07:32:21;;;;;;;1.80;1.10;;;13.10;38.20;;;;;;5032047;28;20267;-70
2023/03/21 07:34:47;;;;;;;2.40;1.50;;;13.10;38.10;;;;;;5033074;28;20551;-70
2023/03/21 07:37:12;;;;;;;1.90;1.30;;;13.00;36.60;;;;;;5034284;28;20503;-70
2023/03/21 07:39:38;;;;;;;1.83;1.20;;;13.40;37.00;;;;;;5034417;28;20196;-71
2023/03/21 07:42:04;;;;;;;1.70;1.10;;;13.20;36.50;;;;;;5031195;28;20201;-70
2023/03/21 07:44:29;;;;;;;1.90;1.30;;;13.10;36.40;;;;;;5034031;28;20181;-73
2023/03/21 07:46:55;;;;;;;1.90;1.20;;;13.60;35.70;;;;;;5034232;28;20181;-71
2023/03/21 07:49:21;;;;;;;1.80;1.20;;;14.00;34.30;;;;;;5034335;28;20173;-71
2023/03/21 07:51:46;;;;;;;1.90;1.23;;;13.60;34.80;;;;;;5033213;28;20952;-70
2023/03/21 07:54:12;;;;;;;1.90;1.27;;;13.60;36.30;;;;;;5033287;28;20640;-73
2023/03/21 07:56:38;;;;;;;2.13;1.40;;;13.60;35.70;;;;;;5034004;28;20173;-70
2023/03/21 07:59:04;;;;;;;2.13;1.37;;;13.60;35.70;;;;;;5029533;28;20184;-70
2023/03/21 08:01:30;;;;;;;1.90;1.20;;;13.90;34.50;;;;;;5030775;28;20214;-72
2023/03/21 08:03:56;;;;;;;1.70;1.10;;;13.90;34.50;;;;;;5032075;28;20932;-71
2023/03/21 08:06:25;;;;;;;1.80;1.20;;;13.80;35.20;;;;;;5034023;28;20421;-71
2023/03/21 08:08:51;;;;;;;1.90;1.30;;;14.50;33.40;;;;;;5033789;28;20183;-71
2023/03/21 08:11:17;;;;;;;2.00;1.30;;;15.00;31.50;;;;;;5030611;28;20469;-73
2023/03/21 08:13:43;;;;;;;1.90;1.40;;;14.70;32.20;;;;;;5028692;28;20191;-72
2023/03/21 08:16:08;;;;;;;3.80;2.13;;;14.40;33.80;;;;;;5033062;28;20419;-70
2023/03/21 08:18:34;;;;;;;3.60;2.50;;;14.50;33.30;;;;;;5033776;28;20262;-70
2023/03/21 08:20:59;;;;;;;1.80;1.20;;;14.30;32.60;;;;;;5031853;28;20588;-70
2023/03/21 08:23:25;;;;;;;1.90;1.30;;;14.30;33.20;;;;;;5032545;28;20175;-71
2023/03/21 08:25:52;;;;;;;2.00;1.30;;;14.40;32.90;;;;;;5033129;28;20179;-71
2023/03/21 08:28:19;;;;;;;4.83;1.60;;;14.90;32.50;;;;;;5033614;28;20402;-70
2023/03/21 08:30:44;;;;;;;2.20;1.37;;;15.20;30.80;;;;;;5032435;28;20445;-70
2023/03/21 08:33:12;;;;;;;2.50;1.70;;;14.80;31.20;;;;;;5032019;28;20438;-69
2023/03/21 08:35:38;;;;;;;1.83;1.30;;;14.60;31.60;;;;;;5034124;28;20211;-70
2023/03/21 08:38:04;;;;;;;3.50;1.50;;;14.70;31.50;;;;;;5033805;28;20430;-70
2023/03/21 08:40:30;;;;;;;1.90;1.30;;;14.60;31.70;;;;;;5026396;28;20931;-72
2023/03/21 08:42:56;;;;;;;2.10;1.60;;;14.50;31.70;;;;;;5026636;28;20489;-68
2023/03/21 08:45:22;;;;;;;2.23;1.60;;;14.30;31.90;;;;;;5028804;28;20649;-70
2023/03/21 08:47:48;;;;;;;1.87;1.20;;;14.50;31.40;;;;;;5022677;28;20194;-69
2023/03/21 08:50:21;;;;;;;2.47;1.40;;;15.10;31.40;;;;;;5021813;28;20404;-72
2023/03/21 08:52:48;;;;;;;1.93;1.30;;;14.90;30.90;;;;;;5023749;28;20181;-69
2023/03/21 08:55:15;;;;;;;1.90;1.30;;;14.40;31.40;;;;;;5024079;28;20524;-72
2023/03/21 08:57:41;;;;;;;1.80;1.13;;;14.90;30.90;;;;;;5022436;28;20448;-70
2023/03/21 09:00:12;;;;;;;1.90;1.30;;;15.30;30.00;;;;;;5024801;28;20462;-69
2023/03/21 09:02:39;;;;;;;2.00;1.37;;;14.90;30.70;;;;;;5030869;28;20481;-72
2023/03/21 09:05:06;;;;;;;1.80;1.20;;;14.60;31.20;;;;;;5030462;28;20451;-70
2023/03/21 09:07:35;;;;;;;1.83;1.27;;;14.70;31.80;;;;;;5032373;28;20634;-70
2023/03/21 09:10:02;;;;;;;1.80;1.20;;;15.60;29.70;;;;;;5025416;28;20437;-71
2023/03/21 09:12:28;;;;;;;1.93;1.30;;;16.30;28.20;;;;;;5029344;28;20458;-76
2023/03/21 09:14:54;;;;;;;1.90;1.30;;;15.90;28.60;;;;;;5029424;28;20431;-70
2023/03/21 09:17:19;;;;;;;1.90;1.30;;;15.90;28.50;;;;;;5030254;28;20192;-74
2023/03/21 09:19:46;;;;;;;2.10;1.30;;;16.60;28.50;;;;;;5025551;28;20188;-70
2023/03/21 09:22:16;;;;;;;1.90;1.30;;;16.50;28.00;;;;;;5019839;28;20570;-70
2023/03/21 09:24:49;;;;;;;1.90;1.33;;;15.90;28.30;;;;;;5020705;28;20927;-74
2023/03/21 09:27:16;;;;;;;2.77;1.60;;;16.40;28.80;;;;;;5024052;28;20903;-70
2023/03/21 09:29:43;;;;;;;3.20;1.53;;;16.50;28.00;;;;;;5026619;28;20439;-70
2023/03/21 09:32:10;;;;;;;1.80;1.20;;;16.40;27.40;;;;;;5020054;28;20448;-72
2023/03/21 09:34:39;;;;;;;2.00;1.30;;;15.80;28.30;;;;;;5023045;28;20400;-70
2023/03/21 09:37:08;;;;;;;2.33;1.60;;;16.20;27.50;;;;;;5026334;28;20435;-70
2023/03/21 09:39:35;;;;;;;1.80;1.20;;;15.40;28.70;;;;;;5026465;28;20895;-71
2023/03/21 09:42:45;;;;;;;1.80;1.20;;;16.20;28.10;;;;;;5031961;28;20432;-71
2023/03/21 09:45:36;;;;;;;1.73;1.13;;;15.70;28.10;;;;;;4999363;28;20444;-70
2023/03/21 09:48:06;;;;;;;1.80;1.20;;;15.60;29.00;;;;;;5024046;28;20441;-70
2023/03/21 09:50:36;;;;;;;1.70;1.17;;;16.00;28.10;;;;;;5028525;28;20450;-71
2023/03/21 09:53:11;;;;;;;2.80;1.60;;;16.30;27.70;;;;;;5031048;28;20421;-70
2023/03/21 09:55:39;;;;;;;2.53;1.50;;;16.90;27.10;;;;;;5031728;28;20900;-70
2023/03/21 09:58:21;;;;;;;2.10;1.40;;;17.40;26.10;;;;;;5028532;28;21053;-70
2023/03/21 10:00:55;;;;;;;2.00;1.30;;;17.20;27.00;;;;;;5030631;28;20472;-70
2023/03/21 10:03:23;;;;;;;1.90;1.20;;;18.30;25.50;;;;;;5031450;28;20793;-71
2023/03/21 10:05:51;;;;;;;2.20;1.20;;;18.10;24.60;;;;;;5031765;28;20417;-71
2023/03/21 10:08:26;;;;;;;2.00;1.30;;;17.70;25.50;;;;;;5025142;28;20427;-71
2023/03/21 10:11:00;;;;;;;6.90;2.10;;;18.40;25.30;;;;;;5026250;28;20472;-73
2023/03/21 10:13:29;;;;;;;2.10;1.20;;;18.50;24.60;;;;;;5027218;28;20435;-71
2023/03/21 10:16:01;;;;;;;2.50;1.30;;;18.40;24.80;;;;;;5028015;28;20444;-70
2023/03/21 10:18:29;;;;;;;2.40;1.40;;;19.10;24.40;;;;;;5028649;28;20435;-72
2023/03/21 10:20:56;;;;;;;2.47;1.33;;;19.60;23.70;;;;;;5020442;28;21026;-71
2023/03/21 10:23:25;;;;;;;2.40;1.30;;;20.60;22.00;;;;;;5021823;28;20746;-71
2023/03/21 10:25:59;;;;;;;2.40;1.20;;;20.70;21.40;;;;;;5028159;28;20423;-71
2023/03/21 10:28:30;;;;;;;3.00;1.57;;;19.20;23.70;;;;;;5020461;28;20443;-71
2023/03/21 10:31:06;;;;;;;2.40;1.10;;;19.20;23.70;;;;;;5031101;28;20447;-70
2023/03/21 10:33:37;;;;;;;2.73;1.37;;;20.10;22.70;;;;;;5019199;28;20527;-71
2023/03/21 10:36:27;;;;;;;2.50;1.20;;;20.70;21.90;;;;;;5030379;28;20433;-71
2023/03/21 10:39:00;;;;;;;2.50;1.20;;;19.70;22.50;;;;;;5024742;28;20405;-70
2023/03/21 10:41:26;;;;;;;2.60;1.30;;;18.90;23.90;;;;;;5031229;28;20881;-70
2023/03/21 10:44:06;;;;;;;2.60;1.30;;;18.40;24.60;;;;;;5031056;28;20406;-71
2023/03/21 10:46:32;;;;;;;2.60;1.20;;;18.80;24.30;;;;;;5028455;28;20182;-71
2023/03/21 10:48:57;;;;;;;2.70;1.40;;;18.40;24.20;;;;;;5030985;28;20906;-71
2023/03/21 10:51:32;;;;;;;2.83;1.27;;;18.40;25.10;;;;;;5030813;28;20463;-71
2023/03/21 10:54:03;;;;;;;2.90;1.30;;;19.10;26.20;;;;;;5029702;28;20183;-71
2023/03/21 10:56:34;;;;;;;2.93;1.33;;;20.50;21.90;;;;;;5031037;28;20413;-74
2023/03/21 10:59:01;;;;;;;2.90;1.23;;;19.90;22.40;;;;;;5031241;28;20903;-71
2023/03/21 11:01:45;;;;;;;3.20;1.27;;;19.90;22.70;;;;;;5031039;28;20505;-71
2023/03/21 11:04:21;;;;;;;3.27;1.40;;;19.80;22.30;;;;;;5028619;28;20842;-71
2023/03/21 11:07:00;;;;;;;4.57;1.40;;;20.50;21.30;;;;;;5023504;28;20401;-71
2023/03/21 11:10:00;;;;;;;3.70;1.47;;;21.00;21.70;;;;;;5031128;28;20383;-72
2023/03/21 11:12:40;;;;;;;3.20;1.40;;;19.90;23.00;;;;;;5030995;28;20510;-72
2023/03/21 11:15:29;;;;;;;3.20;1.30;;;20.30;23.30;;;;;;5028734;28;20962;-73
2023/03/21 11:17:56;;;;;;;3.20;1.30;;;20.80;21.90;;;;;;5023272;28;20500;-71
2023/03/21 11:20:22;;;;;;;3.63;1.60;;;21.00;20.90;;;;;;5029107;28;20460;-73
2023/03/21 11:22:48;;;;;;;3.30;1.40;;;21.40;20.80;;;;;;5029326;28;20427;-74
2023/03/21 11:25:37;;;;;;;3.40;1.40;;;20.70;21.00;;;;;;5030945;28;20312;-71
2023/03/21 11:28:14;;;;;;;3.40;1.40;;;19.20;23.20;;;;;;5011240;28;20402;-71
2023/03/21 11:30:51;;;;;;;3.63;1.50;;;19.30;23.20;;;;;;5011021;28;20510;-74
2023/03/21 11:33:19;;;;;;;3.20;1.30;;;20.70;22.10;;;;;;5013367;28;20837;-70
2023/03/21 11:35:58;;;;;;;3.20;1.40;;;19.90;22.60;;;;;;5024549;28;20573;-71
2023/03/21 11:38:27;;;;;;;3.10;1.20;;;19.60;22.90;;;;;;5031274;28;20753;-71
2023/03/21 11:40:58;;;;;;;9.13;1.40;;;19.30;23.20;;;;;;5030796;28;20454;-71
2023/03/21 11:43:36;;;;;;;3.20;1.40;;;19.70;24.40;;;;;;5030716;28;20403;-70
2023/03/21 11:46:08;;;;;;;3.20;1.40;;;19.60;23.10;;;;;;5031685;28;20434;-73
2023/03/21 11:48:43;;;;;;;3.33;1.37;;;18.70;24.40;;;;;;5034398;28;20443;-71
2023/03/21 11:51:20;;;;;;;3.17;1.30;;;18.00;25.20;;;;;;5034143;28;20495;-72
2023/03/21 11:53:52;;;;;;;2.93;1.20;;;18.70;24.40;;;;;;5033937;28;20500;-71
2023/03/21 11:56:28;;;;;;;4.10;1.53;;;19.90;23.70;;;;;;5022892;28;20422;-75
2023/03/21 11:59:05;;;;;;;3.20;1.40;;;20.50;22.30;;;;;;5031975;28;20470;-72
2023/03/21 12:01:42;;;;;;;3.47;1.50;;;21.20;20.90;;;;;;5029078;28;20470;-72
2023/03/21 12:04:50;;;;;;;3.77;1.60;;;20.30;22.00;;;;;;5034111;28;20425;-72
2023/03/21 12:07:33;;;;;;;3.10;1.30;;;19.80;23.80;;;;;;5023321;28;20435;-72
2023/03/21 12:10:23;;;;;;;3.10;1.30;;;20.60;22.30;;;;;;5032910;28;20427;-74
2023/03/21 12:13:20;;;;;;;3.47;1.67;;;20.80;21.80;;;;;;5024308;28;20435;-75
2023/03/21 12:15:51;;;;;;;3.10;1.40;;;20.10;22.90;;;;;;5026589;28;20434;-72
2023/03/21 12:18:19;;;;;;;3.17;1.40;;;18.50;24.90;;;;;;5022831;28;20506;-73
2023/03/21 12:21:14;;;;;;;3.07;1.40;;;18.70;24.70;;;;;;5029973;28;20526;-75
2023/03/21 12:24:00;;;;;;;3.20;1.60;;;19.60;23.80;;;;;;5029914;28;20427;-72
2023/03/21 12:26:59;;;;;;;3.23;1.37;;;19.90;24.00;;;;;;5027266;28;21020;-72
2023/03/21 12:29:55;;;;;;;22.47;1.90;;;19.80;24.70;;;;;;5027089;28;20481;-75
2023/03/21 12:32:58;;;;;;;3.00;1.40;;;19.90;23.50;;;;;;5002327;28;20596;-71
2023/03/21 12:35:33;;;;;;;3.30;1.50;;;19.80;23.70;;;;;;5031511;28;20500;-72
2023/03/21 12:38:16;;;;;;;3.20;1.50;;;20.10;22.80;;;;;;5025265;28;20430;-71
2023/03/21 12:40:58;;;;;;;3.60;1.53;;;19.70;23.30;;;;;;5024199;28;20480;-73
2023/03/21 12:43:32;;;;;;;3.27;1.47;;;19.20;24.50;;;;;;5028916;28;20437;-72
2023/03/21 12:46:08;;;;;;;3.00;1.40;;;20.00;23.90;;;;;;5025274;28;20439;-75
2023/03/21 12:49:09;;;;;;;2.90;1.27;;;20.10;23.50;;;;;;5029257;28;20441;-71
2023/03/21 12:51:43;;;;;;;3.03;1.30;;;19.70;23.40;;;;;;5003531;28;20473;-71
2023/03/21 12:54:30;;;;;;;3.17;1.50;;;20.60;22.30;;;;;;5026608;28;20541;-70
2023/03/21 12:56:59;;;;;;;3.20;1.60;;;20.40;22.60;;;;;;5024336;28;20824;-70
2023/03/21 12:59:40;;;;;;;3.00;1.20;;;20.30;23.40;;;;;;5025189;28;20808;-72
2023/03/21 13:02:35;;;;;;;3.10;1.40;;;20.20;22.60;;;;;;5031739;28;20441;-71
2023/03/21 13:05:17;;;;;;;3.60;1.60;;;19.80;23.70;;;;;;5032869;28;20421;-71
2023/03/21 13:07:50;;;;;;;3.60;1.60;;;20.50;23.30;;;;;;5032790;28;20401;-72
2023/03/21 13:10:20;;;;;;;3.40;1.50;;;21.70;21.70;;;;;;5030202;28;20524;-73